Time;durP1;ratioP1;P1;durP2;ratioP2;P2;SDS_P1;SDS_P2;PMS_P1;PMS_P2;Temp;Humidity;BMP_temperature;BMP_pressure;BME280_temperature;BME280_humidity;BME280_pressure;Samples;Min_cycle;Max_cycle;Signal;HPM_P1;HPM_P2
2021/08/20 00:01:13;;;;;;;2.90;1.60;;;;;;;16.67;68.81;92713.28;4988581;28;20054;-93
2021/08/20 00:04:09;;;;;;;;;;;;;;;;;;;;;
2021/08/20 00:07:14;;;;;;;1.73;1.20;;;;;;;16.73;68.31;92719.94;4981482;28;20061;-92
2021/08/20 00:09:47;;;;;;;4.10;1.30;;;;;;;16.67;68.41;92702.69;5005603;28;20053;-92
2021/08/20 00:16:08;;;;;;;1.27;0.93;;;;;;;16.77;68.91;92707.59;5002522;28;20064;-92
2021/08/20 00:18:46;;;;;;;6.45;1.63;;;;;;;16.82;68.73;92710.13;4972416;28;20057;-91
2021/08/20 00:21:44;;;;;;;;;;;;;;;;;;;;;
2021/08/20 00:24:38;;;;;;;;;;;;;;;;;;;;;
2021/08/20 00:27:53;;;;;;;;;;;;;;;;;;;;;
2021/08/20 00:31:06;;;;;;;2.28;1.45;;;;;;;16.76;68.72;92706.06;5013033;28;20038;-92
2021/08/20 00:33:42;;;;;;;1.55;1.00;;;;;;;16.79;69.21;92704.66;4964750;28;20050;-92
2021/08/20 00:36:46;;;;;;;;;;;;;;;;;;;;;
2021/08/20 00:39:50;;;;;;;1.23;0.90;;;;;;;16.75;69.18;92693.97;4986576;28;20046;-92
2021/08/20 00:42:33;;;;;;;;;;;;;;;;;;;;;
2021/08/20 00:45:10;;;;;;;1.58;1.08;;;;;;;16.72;69.33;92693.81;4999603;28;20049;-92
2021/08/20 00:48:12;;;;;;;2.20;1.60;;;;;;;16.75;69.80;92691.31;4984281;28;20124;-92
2021/08/20 00:51:12;;;;;;;;;;;;;;;;;;;;;
2021/08/20 00:53:53;;;;;;;2.33;1.50;;;;;;;16.74;69.38;92692.41;4997523;28;20050;-93
2021/08/20 00:56:34;;;;;;;1.83;0.98;;;;;;;16.74;69.40;92702.19;4982328;28;20042;-91
2021/08/20 00:59:16;;;;;;;1.42;0.95;;;;;;;16.74;69.18;92694.28;4981394;28;20052;-91
2021/08/20 01:01:54;;;;;;;4.80;1.58;;;;;;;16.68;69.14;92687.59;4964461;28;20038;-92
2021/08/20 01:05:00;;;;;;;;;;;;;;;;;;;;;
2021/08/20 01:07:37;;;;;;;3.38;1.55;;;;;;;16.67;68.92;92688.72;4987628;28;20077;-92
2021/08/20 01:10:20;;;;;;;;;;;;;;;;;;;;;
2021/08/20 01:13:09;;;;;;;1.90;1.33;;;;;;;16.64;69.28;92688.25;4984728;28;20046;-92
2021/08/20 01:15:40;;;;;;;2.83;1.30;;;;;;;16.63;69.39;92696.50;4988740;28;20399;-92
2021/08/20 01:18:28;;;;;;;1.27;1.15;;;;;;;16.67;69.35;92702.69;4981345;28;20042;-92
2021/08/20 01:21:18;;;;;;;4.70;1.42;;;;;;;16.63;70.04;92693.84;4980758;28;20069;-93
2021/08/20 01:23:58;;;;;;;3.28;1.73;;;;;;;16.65;69.98;92684.50;4987043;28;20042;-92
2021/08/20 01:26:59;;;;;;;2.97;1.27;;;;;;;16.70;69.53;92702.06;4964833;28;20046;-91
2021/08/20 01:29:51;;;;;;;;;;;;;;;;;;;;;
2021/08/20 01:32:49;;;;;;;1.05;0.82;;;;;;;16.65;69.39;92689.78;4998041;28;20045;-91
2021/08/20 01:35:23;;;;;;;1.35;1.00;;;;;;;16.64;69.84;92693.53;4980839;28;20108;-92
2021/08/20 01:37:58;;;;;;;1.95;1.13;;;;;;;16.64;69.44;92690.13;4982044;28;20050;-92
2021/08/20 01:40:32;;;;;;;1.88;1.30;;;;;;;16.59;69.51;92685.00;4980479;28;20419;-92
2021/08/20 01:43:08;;;;;;;;;;;;;;;;;;;;;
2021/08/20 01:45:40;;;;;;;1.17;0.85;;;;;;;16.58;69.60;92694.03;4997999;28;20073;-91
2021/08/20 01:48:27;;;;;;;;;;;;;;;;;;;;;
2021/08/20 01:51:13;;;;;;;2.78;1.70;;;;;;;16.62;69.48;92689.66;4978957;28;20038;-92
2021/08/20 01:54:02;;;;;;;1.75;1.25;;;;;;;16.67;69.49;92691.34;4989666;28;20506;-92
2021/08/20 01:56:47;;;;;;;4.30;1.73;;;;;;;16.67;69.56;92692.13;4978544;28;20373;-91
2021/08/20 01:59:31;;;;;;;2.17;1.35;;;;;;;16.65;69.77;92686.38;4978054;28;20081;-92
2021/08/20 02:02:10;;;;;;;1.65;1.17;;;;;;;16.67;69.91;92689.47;4975523;28;20566;-91
2021/08/20 02:04:51;;;;;;;;;;;;;;;;;;;;;
2021/08/20 02:10:22;;;;;;;3.00;1.75;;;;;;;16.73;69.52;92682.94;4997768;28;20084;-91
2021/08/20 02:13:14;;;;;;;2.45;1.42;;;;;;;16.78;69.59;92690.66;4981397;28;20054;-92
2021/08/20 02:15:45;;;;;;;6.63;1.57;;;;;;;16.80;69.62;92683.22;4997247;28;20105;-92
2021/08/20 02:18:21;;;;;;;;;;;;;;;;;;;;;
2021/08/20 02:21:10;;;;;;;;;;;;;;;;;;;;;
2021/08/20 02:23:52;;;;;;;;;;;;;;;;;;;;;
2021/08/20 02:26:52;;;;;;;1.58;1.27;;;;;;;16.92;69.15;92687.06;4993985;28;20068;-92
2021/08/20 02:29:26;;;;;;;1.33;1.08;;;;;;;16.92;69.55;92693.09;4962748;28;20057;-92
2021/08/20 02:32:03;;;;;;;2.38;1.40;;;;;;;16.87;69.62;92674.78;4948870;28;20451;-91
2021/08/20 02:34:57;;;;;;;1.88;1.30;;;;;;;16.92;69.58;92681.75;4997335;28;20046;-92
2021/08/20 02:37:28;;;;;;;1.25;0.85;;;;;;;16.82;69.46;92673.13;4981215;28;20495;-92
2021/08/20 02:40:05;;;;;;;1.98;1.33;;;;;;;16.80;70.28;92680.59;4997196;28;20063;-92
2021/08/20 02:43:15;;;;;;;0.88;0.73;;;;;;;16.79;70.19;92686.94;4985014;28;20064;-91
2021/08/20 02:45:45;;;;;;;2.70;1.45;;;;;;;16.72;70.17;92677.94;4980865;28;20129;-92
2021/08/20 02:48:30;;;;;;;4.13;1.70;;;;;;;16.69;70.27;92682.00;4978952;28;20041;-93
2021/08/20 02:51:13;;;;;;;2.22;1.10;;;;;;;16.65;70.35;92684.50;4977526;28;20046;-92
2021/08/20 02:53:51;;;;;;;2.25;1.25;;;;;;;16.64;70.56;92687.50;4977762;28;20055;-92
2021/08/20 02:56:43;;;;;;;2.65;1.48;;;;;;;16.57;70.60;92692.47;4953921;28;20046;-92
2021/08/20 02:59:18;;;;;;;4.63;1.45;;;;;;;16.51;70.92;92675.25;4961747;28;20049;-92
2021/08/20 03:01:54;;;;;;;2.08;1.13;;;;;;;16.52;71.27;92690.00;4947367;28;20049;-90
2021/08/20 03:04:29;;;;;;;1.80;1.40;;;;;;;16.45;71.18;92686.00;4977076;28;20076;-92
2021/08/20 03:07:08;;;;;;;1.30;1.08;;;;;;;16.40;70.97;92683.53;4987657;28;20054;-90
2021/08/20 03:10:04;;;;;;;1.35;1.10;;;;;;;16.36;70.95;92677.31;4984495;28;20056;-92
2021/08/20 03:12:54;;;;;;;1.15;1.02;;;;;;;16.22;71.40;92669.59;4980886;28;20050;-92
2021/08/20 03:15:25;;;;;;;1.90;1.23;;;;;;;16.22;71.47;92668.84;4967466;28;20058;-93
2021/08/20 03:17:58;;;;;;;3.10;1.38;;;;;;;16.19;71.48;92672.13;4960401;28;20050;-92
2021/08/20 03:20:42;;;;;;;1.35;1.08;;;;;;;16.14;71.46;92664.34;4977320;28;20042;-92
2021/08/20 03:23:22;;;;;;;1.92;1.27;;;;;;;16.09;71.48;92667.16;4959689;28;20055;-92
2021/08/20 03:25:56;;;;;;;2.33;1.23;;;;;;;16.01;71.52;92660.84;4973281;28;20043;-92
2021/08/20 03:29:00;;;;;;;;;;;;;;;;;;;;;
2021/08/20 03:32:04;;;;;;;3.42;1.20;;;;;;;15.97;71.53;92665.97;4953571;29;20051;-92
2021/08/20 03:34:53;;;;;;;;;;;;;;;;;;;;;
2021/08/20 03:37:39;;;;;;;2.05;1.38;;;;;;;15.90;71.42;92678.88;4958409;28;20051;-92
2021/08/20 03:40:10;;;;;;;1.27;1.02;;;;;;;15.89;72.31;92672.03;4966518;28;20046;-92
2021/08/20 03:43:01;;;;;;;3.38;2.05;;;;;;;15.86;72.65;92674.53;4973471;28;20050;-92
2021/08/20 03:46:09;;;;;;;1.73;1.40;;;;;;;15.81;72.38;92675.47;4960316;28;20043;-92
2021/08/20 03:48:52;;;;;;;1.55;1.02;;;;;;;15.85;72.02;92684.31;4952692;28;20141;-91
2021/08/20 03:51:35;;;;;;;2.58;0.95;;;;;;;15.80;71.97;92673.91;4952730;29;20376;-92
2021/08/20 03:54:23;;;;;;;2.20;1.55;;;;;;;15.81;72.29;92672.84;4960873;28;20045;-92
2021/08/20 03:56:55;;;;;;;2.05;1.42;;;;;;;15.89;72.53;92695.00;4964779;28;20039;-92
2021/08/20 03:59:30;;;;;;;2.40;1.25;;;;;;;15.81;73.11;92683.41;4938881;29;20358;-93
2021/08/20 04:02:06;;;;;;;2.53;1.27;;;;;;;15.78;72.88;92684.00;4937804;28;20054;-92
2021/08/20 04:04:37;;;;;;;1.83;1.38;;;;;;;15.73;72.77;92679.66;4938455;29;20035;-92
2021/08/20 04:07:40;;;;;;;2.25;1.42;;;;;;;15.71;73.06;92686.34;4943849;28;20054;-92
2021/08/20 04:10:30;;;;;;;3.50;1.92;;;;;;;15.65;73.94;92677.78;4951728;28;20141;-92
2021/08/20 04:13:11;;;;;;;1.90;1.30;;;;;;;15.72;73.68;92686.03;4926390;28;20077;-91
2021/08/20 04:15:48;;;;;;;1.67;1.42;;;;;;;15.63;73.74;92679.97;4956334;28;20122;-92
2021/08/20 04:18:20;;;;;;;1.33;1.00;;;;;;;15.62;73.98;92676.53;4980115;28;20038;-92
2021/08/20 04:21:01;;;;;;;2.42;1.60;;;;;;;15.65;73.60;92685.72;4966744;28;20102;-91
2021/08/20 04:23:32;;;;;;;2.72;1.60;;;;;;;15.58;73.55;92685.38;4980756;28;20050;-91
2021/08/20 04:26:04;;;;;;;2.53;1.63;;;;;;;15.59;73.44;92682.44;4947993;28;20431;-91
2021/08/20 04:32:56;;;;;;;2.85;1.75;;;;;;;15.64;73.32;92691.28;4876368;29;20454;-93
2021/08/20 04:39:45;;;;;;;1.45;1.13;;;;;;;15.65;74.13;92690.19;4835429;29;20051;-92
2021/08/20 04:42:42;;;;;;;2.05;1.40;;;;;;;15.65;73.96;92691.00;4855530;29;20050;-91
2021/08/20 04:45:37;;;;;;;1.55;1.15;;;;;;;15.60;74.47;92694.56;4875307;29;20100;-91
2021/08/20 04:48:29;;;;;;;2.97;1.52;;;;;;;15.66;74.23;92702.31;4885885;29;20105;-91
2021/08/20 04:58:54;;;;;;;;;;;;;;;;;;;;;
2021/08/20 05:01:57;;;;;;;3.33;1.88;;;;;;;15.81;73.97;92701.88;4880712;29;20048;-92
2021/08/20 05:04:50;;;;;;;;;;;;;;;;;;;;;
2021/08/20 05:07:31;;;;;;;2.55;1.73;;;;;;;15.89;73.67;92714.25;5009489;28;20041;-90
2021/08/20 05:10:13;;;;;;;2.33;1.20;;;;;;;15.85;73.69;92705.44;4989450;28;20073;-92
2021/08/20 05:12:47;;;;;;;1.48;0.93;;;;;;;15.94;73.55;92729.97;4973476;28;20046;-92
2021/08/20 05:15:18;;;;;;;2.20;1.42;;;;;;;15.96;73.75;92725.16;4961237;28;20074;-92
2021/08/20 05:17:46;;;;;;;2.03;1.48;;;;;;;16.00;73.84;92728.69;4977972;28;20483;-92
2021/08/20 05:20:17;;;;;;;2.65;1.67;;;;;;;15.96;74.26;92727.78;4960993;28;20038;-90
2021/08/20 05:22:56;;;;;;;2.35;1.33;;;;;;;16.08;74.43;92731.66;4945342;28;20054;-91
2021/08/20 05:25:37;;;;;;;1.95;1.38;;;;;;;16.11;74.62;92723.84;4977825;28;20066;-91
2021/08/20 05:28:13;;;;;;;3.50;1.90;;;;;;;16.24;74.35;92722.91;4977527;28;20042;-92
2021/08/20 05:30:39;;;;;;;2.80;2.00;;;;;;;16.44;74.17;92734.66;4978103;28;20050;-91
2021/08/20 05:33:05;;;;;;;2.13;1.10;;;;;;;16.55;73.58;92727.16;4961683;28;20443;-91
2021/08/20 05:35:34;;;;;;;1.38;0.93;;;;;;;16.72;73.28;92731.59;4960411;28;20157;-92
2021/08/20 05:38:01;;;;;;;3.03;1.90;;;;;;;16.87;73.29;92735.59;4961052;28;20036;-93
2021/08/20 05:40:27;;;;;;;2.90;1.45;;;;;;;16.95;73.22;92723.41;4961269;28;20047;-92
2021/08/20 05:42:53;;;;;;;2.05;1.45;;;;;;;17.00;73.36;92734.59;4965369;28;20034;-91
2021/08/20 05:45:23;;;;;;;2.85;1.65;;;;;;;17.11;73.86;92740.28;4978012;28;20450;-92
2021/08/20 05:47:54;;;;;;;6.45;1.63;;;;;;;17.16;73.44;92732.19;4980807;28;20058;-91
2021/08/20 05:50:22;;;;;;;1.27;1.10;;;;;;;17.28;73.66;92736.78;4980236;28;20050;-91
2021/08/20 05:52:51;;;;;;;5.70;1.55;;;;;;;17.32;73.83;92734.28;4977007;28;20030;-92
2021/08/20 05:55:30;;;;;;;2.47;1.83;;;;;;;17.42;73.32;92732.00;4977844;28;20057;-91
2021/08/20 05:57:59;;;;;;;2.42;1.35;;;;;;;17.53;73.61;92737.69;4976922;28;20045;-92
2021/08/20 06:00:30;;;;;;;1.95;1.35;;;;;;;17.62;73.14;92734.97;4961247;28;20046;-92
2021/08/20 06:03:08;;;;;;;3.20;1.88;;;;;;;17.69;72.90;92727.28;4947434;28;20054;-92
2021/08/20 06:05:42;;;;;;;2.83;1.75;;;;;;;17.78;72.90;92729.88;4963590;28;20255;-92
2021/08/20 06:08:08;;;;;;;2.42;1.25;;;;;;;17.87;73.23;92730.59;4960644;28;20109;-93
2021/08/20 06:10:43;;;;;;;2.42;1.27;;;;;;;17.92;73.02;92737.56;4976675;28;20054;-93
2021/08/20 06:13:23;;;;;;;2.70;1.77;;;;;;;17.93;72.59;92742.53;4965934;28;20085;-92
2021/08/20 06:15:52;;;;;;;4.15;2.55;;;;;;;17.97;72.56;92745.31;4996321;28;20553;-92
2021/08/20 06:18:20;;;;;;;3.45;1.70;;;;;;;17.98;72.47;92739.69;4964116;28;20394;-93
2021/08/20 06:21:00;;;;;;;1.65;1.30;;;;;;;18.03;71.87;92744.00;4979928;28;20042;-93
2021/08/20 06:23:41;;;;;;;;;;;;;;;;;;;;;
2021/08/20 06:26:09;;;;;;;1.90;1.15;;;;;;;18.01;71.28;92744.34;4995871;28;20065;-92
2021/08/20 06:28:35;;;;;;;2.50;1.60;;;;;;;18.12;71.41;92751.88;4979942;28;20064;-92
2021/08/20 06:31:06;;;;;;;2.40;1.55;;;;;;;18.15;71.88;92753.88;4979130;28;20522;-93
2021/08/20 06:33:32;;;;;;;2.83;1.58;;;;;;;18.14;71.78;92747.78;4994815;28;20056;-92
2021/08/20 06:36:01;;;;;;;1.92;1.08;;;;;;;18.22;72.39;92756.78;4995315;28;20092;-93
2021/08/20 06:38:27;;;;;;;5.47;1.65;;;;;;;18.17;72.65;92752.47;4980142;28;20337;-92
2021/08/20 06:41:01;;;;;;;3.60;2.08;;;;;;;18.14;71.17;92754.97;4979965;28;20029;-93
2021/08/20 06:43:38;;;;;;;1.70;1.13;;;;;;;18.16;72.66;92766.03;4979558;28;20479;-92
2021/08/20 06:46:04;;;;;;;2.20;1.35;;;;;;;18.18;72.74;92761.19;4975689;28;20046;-92
2021/08/20 06:48:42;;;;;;;2.28;1.45;;;;;;;18.27;71.71;92757.34;4960879;28;20038;-91
2021/08/20 06:51:12;;;;;;;2.45;1.48;;;;;;;18.34;70.13;92759.44;4959933;28;20047;-92
2021/08/20 06:53:40;;;;;;;4.20;1.90;;;;;;;18.38;70.49;92760.34;4979112;28;20026;-92
2021/08/20 06:56:06;;;;;;;5.57;1.70;;;;;;;18.50;70.68;92755.06;4978977;28;20450;-92
2021/08/20 06:58:35;;;;;;;2.65;1.25;;;;;;;18.62;70.60;92758.84;4962326;28;20070;-93
2021/08/20 07:01:16;;;;;;;3.30;1.48;;;;;;;18.65;69.73;92760.84;4975573;28;20046;-92
2021/08/20 07:03:47;;;;;;;4.80;1.65;;;;;;;18.76;70.73;92769.16;4966186;28;20096;-92
2021/08/20 07:06:27;;;;;;;3.30;1.90;;;;;;;18.84;69.40;92766.41;4977058;28;20047;-91
2021/08/20 07:08:58;;;;;;;2.30;1.50;;;;;;;18.95;68.77;92771.28;4960623;28;20440;-91
2021/08/20 07:11:30;;;;;;;2.65;1.60;;;;;;;18.89;68.08;92763.56;4959299;28;20398;-92
2021/08/20 07:14:08;;;;;;;2.38;1.60;;;;;;;18.95;68.20;92768.66;4959820;28;20060;-92
2021/08/20 07:16:45;;;;;;;2.05;1.17;;;;;;;19.04;68.74;92774.63;4959869;28;20051;-92
2021/08/20 07:19:11;;;;;;;2.17;1.45;;;;;;;19.05;66.95;92761.03;4964464;28;20048;-92
2021/08/20 07:21:42;;;;;;;2.83;1.48;;;;;;;19.01;67.77;92764.69;4978131;28;20050;-92
2021/08/20 07:24:17;;;;;;;2.47;1.60;;;;;;;19.14;68.25;92779.50;4979578;28;20050;-91
2021/08/20 07:26:43;;;;;;;2.58;1.17;;;;;;;19.35;67.42;92790.75;4978329;28;20100;-92
2021/08/20 07:29:19;;;;;;;1.80;1.33;;;;;;;19.39;66.59;92787.44;4976952;28;20038;-92
2021/08/20 07:31:47;;;;;;;5.05;1.95;;;;;;;19.25;67.25;92785.91;4993876;28;20050;-93
2021/08/20 07:34:22;;;;;;;2.88;1.30;;;;;;;19.16;68.44;92781.78;4977767;28;20040;-93
2021/08/20 07:36:56;;;;;;;4.05;2.17;;;;;;;19.32;66.10;92780.81;4979418;28;20057;-93
2021/08/20 07:39:40;;;;;;;4.35;1.10;;;;;;;19.59;66.67;92780.44;4996293;28;20276;-92
2021/08/20 07:42:18;;;;;;;3.97;1.85;;;;;;;20.03;62.85;92784.00;4979286;28;20136;-92
2021/08/20 07:44:54;;;;;;;2.65;1.20;;;;;;;20.55;62.76;92796.41;4977396;28;20047;-91
2021/08/20 07:47:27;;;;;;;2.28;1.50;;;;;;;20.90;60.40;92795.03;4977207;28;20045;-93
2021/08/20 07:49:56;;;;;;;1.90;1.15;;;;;;;21.03;59.09;92777.09;4978701;28;20049;-91
2021/08/20 07:52:24;;;;;;;3.22;1.58;;;;;;;20.99;59.16;92787.66;4971311;28;20034;-93
2021/08/20 07:54:52;;;;;;;3.03;1.55;;;;;;;21.10;59.13;92793.25;4974297;28;20038;-93
2021/08/20 07:57:21;;;;;;;1.40;1.13;;;;;;;20.84;61.07;92797.16;4976192;28;20050;-92
2021/08/20 07:59:49;;;;;;;2.60;1.33;;;;;;;20.51;63.06;92798.22;4977687;28;20495;-93
2021/08/20 08:02:26;;;;;;;1.75;1.17;;;;;;;20.86;62.56;92807.47;4974427;28;20030;-91
2021/08/20 08:05:07;;;;;;;1.98;1.20;;;;;;;20.89;61.82;92810.22;4976194;28;20046;-93
2021/08/20 08:07:45;;;;;;;2.28;1.45;;;;;;;21.36;60.37;92812.09;4974597;28;20064;-93
2021/08/20 08:10:21;;;;;;;3.15;2.10;;;;;;;21.57;60.51;92803.06;4954226;28;20077;-94
2021/08/20 08:12:56;;;;;;;2.60;1.50;;;;;;;21.89;58.49;92803.03;4979357;28;20034;-91
2021/08/20 08:15:33;;;;;;;2.90;1.70;;;;;;;22.43;56.96;92803.00;4990944;28;20499;-93
2021/08/20 08:18:01;;;;;;;1.92;1.20;;;;;;;23.06;56.97;92801.84;4973895;28;20492;-93
2021/08/20 08:20:43;;;;;;;2.28;1.30;;;;;;;22.57;57.34;92812.38;4960868;28;20042;-92
2021/08/20 08:23:22;;;;;;;3.58;1.73;;;;;;;22.71;56.04;92801.19;4963397;28;20673;-94
2021/08/20 08:25:50;;;;;;;3.90;1.83;;;;;;;22.82;56.14;92804.84;4962894;28;20090;-91
2021/08/20 08:28:22;;;;;;;2.97;1.55;;;;;;;22.41;58.66;92820.47;4984065;28;20041;-93
2021/08/20 08:31:03;;;;;;;3.72;1.95;;;;;;;22.27;59.07;92825.50;4981642;28;20057;-93
2021/08/20 08:33:31;;;;;;;2.70;1.47;;;;;;;22.15;58.50;92827.16;4982291;28;20049;-94
2021/08/20 08:36:00;;;;;;;2.58;1.58;;;;;;;22.14;59.95;92830.97;4981888;28;20268;-94
2021/08/20 08:38:35;;;;;;;3.38;1.90;;;;;;;21.42;62.93;92831.28;4982769;28;20038;-92
2021/08/20 08:41:05;;;;;;;3.50;1.70;;;;;;;21.82;62.29;92833.72;4981706;28;20045;-95
2021/08/20 08:43:38;;;;;;;2.97;1.70;;;;;;;22.21;60.02;92831.13;4980833;28;20042;-92
2021/08/20 08:46:21;;;;;;;2.67;1.60;;;;;;;22.61;57.16;92830.00;4971108;28;20041;-93
2021/08/20 08:48:53;;;;;;;1.75;1.20;;;;;;;23.08;52.25;92825.53;4981813;28;20108;-92
2021/08/20 08:51:24;;;;;;;2.42;1.52;;;;;;;23.17;50.84;92822.59;4981656;28;20065;-93
2021/08/20 08:54:02;;;;;;;1.90;1.37;;;;;;;23.00;55.40;92831.88;4962094;28;20049;-95
2021/08/20 08:56:48;;;;;;;6.53;2.13;;;;;;;22.76;55.92;92820.34;4979947;28;20050;-92
2021/08/20 08:59:21;;;;;;;2.40;1.40;;;;;;;22.72;56.76;92830.22;4963022;28;20042;-93
2021/08/20 09:01:55;;;;;;;1.98;1.05;;;;;;;22.68;55.92;92828.59;4978259;28;20038;-94
2021/08/20 09:04:37;;;;;;;3.67;2.03;;;;;;;22.68;58.01;92825.94;4978542;28;20042;-94
2021/08/20 09:07:05;;;;;;;4.35;1.63;;;;;;;22.50;58.25;92834.38;4976615;28;20141;-93
2021/08/20 09:09:41;;;;;;;4.63;1.55;;;;;;;22.65;58.82;92836.19;4977897;28;20030;-93
2021/08/20 09:12:09;;;;;;;1.88;1.00;;;;;;;22.56;59.36;92832.16;4963391;28;20038;-92
2021/08/20 09:14:39;;;;;;;3.90;1.88;;;;;;;22.32;59.28;92834.00;4961216;28;20113;-94
2021/08/20 09:17:11;;;;;;;3.67;1.90;;;;;;;22.64;57.49;92836.53;4995947;28;20092;-93
2021/08/20 09:19:43;;;;;;;3.83;1.77;;;;;;;22.89;56.48;92826.31;4981660;28;20097;-93
2021/08/20 09:22:15;;;;;;;3.10;1.80;;;;;;;22.36;56.77;92831.41;4980990;28;20049;-92
2021/08/20 09:24:44;;;;;;;2.38;1.35;;;;;;;22.47;58.04;92843.06;4981023;28;20281;-93
2021/08/20 09:27:17;;;;;;;2.47;1.50;;;;;;;22.23;57.00;92836.13;4980028;28;20045;-95
2021/08/20 09:30:14;;;;;;;10.70;2.17;;;;;;;22.64;57.55;92828.53;4980544;28;20050;-94
2021/08/20 09:32:52;;;;;;;3.80;1.50;;;;;;;22.54;59.88;92843.22;4980433;28;20620;-93
2021/08/20 09:35:48;;;;;;;2.13;1.27;;;;;;;22.44;57.59;92827.75;4980513;28;20084;-94
2021/08/20 09:38:28;;;;;;;3.53;1.80;;;;;;;22.40;55.20;92834.91;4981316;28;20130;-92
2021/08/20 09:41:04;;;;;;;1.98;1.40;;;;;;;22.41;56.02;92831.13;4980678;28;20141;-93
2021/08/20 09:43:34;;;;;;;3.40;2.28;;;;;;;22.59;56.17;92832.25;4965740;28;20054;-93
2021/08/20 09:46:06;;;;;;;2.90;1.63;;;;;;;22.66;57.30;92842.28;4976830;28;20042;-93
2021/08/20 09:49:03;;;;;;;2.50;1.63;;;;;;;22.21;57.09;92833.78;4977421;28;20054;-92
2021/08/20 09:51:49;;;;;;;2.67;1.25;;;;;;;22.38;55.51;92837.16;4960717;28;20043;-93
2021/08/20 09:54:23;;;;;;;4.55;1.58;;;;;;;22.47;55.89;92840.38;4960516;28;20058;-93
2021/08/20 09:56:54;;;;;;;1.85;1.23;;;;;;;22.39;56.17;92830.72;4989907;28;20641;-93
2021/08/20 09:59:30;;;;;;;3.17;2.17;;;;;;;22.63;51.43;92827.75;4980155;28;20554;-92
2021/08/20 10:02:01;;;;;;;1.75;1.17;;;;;;;22.56;53.32;92827.63;4980235;28;20046;-93
2021/08/20 10:04:39;;;;;;;2.08;1.30;;;;;;;22.83;52.75;92825.03;4978428;28;20042;-93
2021/08/20 10:07:09;;;;;;;2.50;1.33;;;;;;;22.65;52.20;92827.38;4983431;28;20120;-94
2021/08/20 10:09:46;;;;;;;1.25;0.90;;;;;;;22.84;52.80;92821.25;4980321;28;20785;-93
2021/08/20 10:12:27;;;;;;;;;;;;;;;;;;;;;
2021/08/20 10:14:59;;;;;;;3.05;1.58;;;;;;;23.36;53.42;92833.22;4996085;28;20124;-93
2021/08/20 10:17:25;;;;;;;1.63;0.90;;;;;;;23.15;52.67;92820.31;4976456;28;20042;-94
2021/08/20 10:19:59;;;;;;;3.17;1.75;;;;;;;22.94;51.47;92826.00;4960856;28;20044;-92
2021/08/20 10:22:26;;;;;;;3.35;1.48;;;;;;;22.98;52.34;92816.16;4961039;28;20054;-93
2021/08/20 10:25:02;;;;;;;;;;;;;;;;;;;;;
2021/08/20 10:27:38;;;;;;;1.95;1.20;;;;;;;22.66;48.86;92827.03;4981992;28;20074;-93
2021/08/20 10:30:10;;;;;;;2.38;1.30;;;;;;;22.79;50.67;92819.66;4960722;28;20117;-92
2021/08/20 10:33:31;;;;;;;1.42;0.90;;;;;;;22.93;50.22;92834.38;4961758;28;20086;-93
2021/08/20 10:36:08;;;;;;;1.55;1.10;;;;;;;22.94;50.02;92831.34;4955073;28;20049;-92
2021/08/20 10:38:57;;;;;;;2.78;1.73;;;;;;;23.22;49.76;92822.31;4960067;28;20042;-92
2021/08/20 10:41:31;;;;;;;2.75;1.05;;;;;;;23.22;47.98;92819.66;4964136;28;20398;-93
2021/08/20 10:44:12;;;;;;;2.22;1.27;;;;;;;23.39;49.62;92829.81;4965539;28;20069;-93
2021/08/20 10:46:42;;;;;;;1.13;0.90;;;;;;;23.22;50.60;92819.66;4978575;28;20192;-94
2021/08/20 10:49:16;;;;;;;1.52;1.02;;;;;;;23.23;50.47;92827.28;4978603;28;20053;-93
2021/08/20 10:51:56;;;;;;;2.03;1.30;;;;;;;23.48;48.59;92825.03;4979765;28;20045;-94
2021/08/20 10:54:30;;;;;;;1.25;1.13;;;;;;;23.58;48.15;92823.63;4979183;28;20447;-94
2021/08/20 10:57:17;;;;;;;3.00;1.27;;;;;;;23.45;45.06;92815.03;4978835;28;20104;-94
2021/08/20 10:59:43;;;;;;;2.15;1.20;;;;;;;23.46;45.95;92819.28;4975026;28;20041;-93
2021/08/20 11:02:24;;;;;;;2.50;1.65;;;;;;;23.65;47.88;92820.31;4961291;28;20117;-94
2021/08/20 11:05:18;;;;;;;2.00;1.13;;;;;;;23.66;48.77;92819.16;4975594;28;20042;-93
2021/08/20 11:07:57;;;;;;;1.98;1.25;;;;;;;23.64;46.83;92824.09;4976666;28;20472;-92
2021/08/20 11:10:37;;;;;;;;;;;;;;;;;;;;;
2021/08/20 11:13:10;;;;;;;14.55;1.60;;;;;;;24.30;47.88;92821.97;4991576;28;20057;-93
2021/08/20 11:15:59;;;;;;;;;;;;;;;;;;;;;
2021/08/20 11:18:49;;;;;;;3.47;1.95;;;;;;;23.85;44.55;92829.78;4991535;28;20120;-93
2021/08/20 11:21:43;;;;;;;2.28;1.58;;;;;;;23.95;45.79;92827.63;4977958;28;20058;-93
2021/08/20 11:24:19;;;;;;;3.13;1.65;;;;;;;24.24;48.53;92818.06;4979063;28;20046;-93
2021/08/20 11:26:48;;;;;;;2.03;1.38;;;;;;;23.55;47.85;92804.88;4978904;28;20042;-92
2021/08/20 11:29:17;;;;;;;3.97;1.33;;;;;;;23.81;48.63;92820.94;4975623;28;20038;-94
2021/08/20 11:31:46;;;;;;;2.28;1.30;;;;;;;24.13;50.08;92828.63;4973387;28;20045;-93
2021/08/20 11:34:15;;;;;;;1.80;1.05;;;;;;;24.23;46.38;92828.00;4975293;28;20495;-92
2021/08/20 11:37:05;;;;;;;4.55;1.48;;;;;;;24.34;45.58;92817.44;4984934;28;20484;-93
2021/08/20 11:39:47;;;;;;;1.08;0.88;;;;;;;24.51;46.27;92821.47;4959145;28;20053;-94
2021/08/20 11:42:20;;;;;;;3.08;1.77;;;;;;;24.50;47.14;92826.06;4964856;28;20100;-92
2021/08/20 11:44:57;;;;;;;2.33;1.35;;;;;;;24.71;49.26;92827.44;4959593;28;20518;-93
2021/08/20 11:47:33;;;;;;;6.72;1.27;;;;;;;23.79;48.27;92809.84;4960642;28;20112;-93
2021/08/20 11:50:10;;;;;;;2.05;1.23;;;;;;;24.44;48.84;92818.69;4975009;28;20129;-94
2021/08/20 11:52:57;;;;;;;2.42;1.38;;;;;;;24.26;49.94;92818.47;4986643;28;20173;-94
2021/08/20 11:55:51;;;;;;;2.13;1.20;;;;;;;24.37;48.37;92810.59;4979649;28;20050;-93
2021/08/20 11:58:48;;;;;;;1.50;1.23;;;;;;;24.04;49.44;92804.81;4994237;28;20038;-94
2021/08/20 12:01:28;;;;;;;2.97;1.50;;;;;;;23.73;51.00;92800.56;4978699;28;20193;-94
2021/08/20 12:04:04;;;;;;;3.35;1.80;;;;;;;23.74;49.11;92804.00;4994148;28;20133;-94
2021/08/20 12:06:57;;;;;;;1.67;1.20;;;;;;;23.89;48.73;92801.22;4995885;28;20389;-93
2021/08/20 12:09:35;;;;;;;3.72;1.90;;;;;;;23.99;48.33;92807.06;4980707;28;20050;-92
2021/08/20 12:12:02;;;;;;;1.80;1.13;;;;;;;23.72;48.74;92801.69;4977477;28;20116;-92
2021/08/20 12:14:45;;;;;;;2.50;1.60;;;;;;;23.68;48.24;92798.97;4994455;28;20025;-94
2021/08/20 12:17:30;;;;;;;1.95;1.17;;;;;;;24.11;48.71;92798.78;4992339;28;20133;-94
2021/08/20 12:20:03;;;;;;;2.40;1.35;;;;;;;23.70;47.78;92802.03;4993945;28;20044;-93
2021/08/20 12:22:39;;;;;;;2.65;1.48;;;;;;;23.93;48.51;92795.13;4978712;28;20054;-94
2021/08/20 12:25:19;;;;;;;1.30;0.95;;;;;;;24.04;47.32;92806.72;4978162;28;20070;-93
2021/08/20 12:28:00;;;;;;;2.03;1.33;;;;;;;23.84;47.66;92800.72;4978387;28;20136;-94
2021/08/20 12:30:38;;;;;;;3.30;1.00;;;;;;;24.24;48.35;92800.09;4958733;28;20137;-93
2021/08/20 12:33:35;;;;;;;;;;;;;;;;;;;;;
2021/08/20 12:36:08;;;;;;;3.67;1.83;;;;;;;24.33;48.16;92805.19;4990473;28;20256;-93
2021/08/20 12:38:34;;;;;;;2.53;1.38;;;;;;;24.47;46.52;92801.88;4974370;28;20506;-92
2021/08/20 12:41:21;;;;;;;2.47;1.67;;;;;;;23.77;46.94;92788.03;4974542;28;20065;-93
2021/08/20 12:43:47;;;;;;;2.58;1.48;;;;;;;24.31;46.42;92792.16;4946575;28;20113;-93
2021/08/20 12:46:18;;;;;;;1.50;1.05;;;;;;;24.55;46.69;92794.75;4967367;28;20487;-93
2021/08/20 12:49:02;;;;;;;2.22;1.48;;;;;;;24.49;47.55;92791.63;4993795;28;20042;-93
2021/08/20 12:51:52;;;;;;;2.25;1.40;;;;;;;24.61;46.21;92802.09;4978175;28;20038;-93
2021/08/20 12:54:30;;;;;;;2.13;1.25;;;;;;;24.49;45.70;92797.75;4978935;28;20511;-95
2021/08/20 12:57:30;;;;;;;1.45;0.90;;;;;;;24.60;45.56;92807.81;4977852;28;20455;-95
2021/08/20 13:00:10;;;;;;;1.45;1.20;;;;;;;24.41;45.85;92800.66;4988512;28;20049;-94
2021/08/20 13:02:43;;;;;;;2.55;1.20;;;;;;;24.58;45.80;92796.69;4994102;28;20042;-94
2021/08/20 13:05:19;;;;;;;0.65;0.65;;;;;;;24.46;44.05;92797.69;4962958;28;20750;-94
2021/08/20 13:07:55;;;;;;;2.33;1.08;;;;;;;24.69;46.10;92794.91;4999236;28;20038;-93
2021/08/20 13:10:29;;;;;;;2.42;1.50;;;;;;;24.48;46.40;92801.56;4980308;28;20048;-95
2021/08/20 13:13:15;;;;;;;2.42;1.50;;;;;;;24.81;45.58;92802.66;4997477;28;20053;-95
2021/08/20 13:15:50;;;;;;;2.88;1.75;;;;;;;24.84;46.44;92790.47;4993564;28;20515;-93
2021/08/20 13:18:33;;;;;;;2.05;1.25;;;;;;;24.21;45.75;92792.06;4966466;28;20051;-92
2021/08/20 13:21:03;;;;;;;1.92;1.33;;;;;;;24.11;46.17;92785.41;4977438;28;20042;-92
2021/08/20 13:23:56;;;;;;;2.25;1.55;;;;;;;23.86;46.33;92782.44;4977754;28;20042;-93
2021/08/20 13:26:24;;;;;;;1.35;0.90;;;;;;;24.36;46.27;92775.00;4984628;28;20077;-93
2021/08/20 13:29:05;;;;;;;;;;;;;;;;;;;;;